createdAt,value
2022-10-24T00:01:19.650Z,1.65
2022-10-24T00:03:46.779Z,1.75
2022-10-24T00:06:13.968Z,1.77
2022-10-24T00:08:42.381Z,1.60
2022-10-24T00:11:17.751Z,2.20
2022-10-24T00:13:44.909Z,1.92
2022-10-24T00:16:12.148Z,1.30
2022-10-24T00:18:39.904Z,1.70
2022-10-24T00:21:07.278Z,1.73
2022-10-24T00:23:34.181Z,1.80
2022-10-24T00:26:01.984Z,2.00
2022-10-24T00:28:29.852Z,2.22
2022-10-24T00:30:57.313Z,1.95
2022-10-24T00:33:24.471Z,1.85
2022-10-24T00:35:51.313Z,1.58
2022-10-24T00:38:18.089Z,1.75
2022-10-24T00:40:45.325Z,2.08
2022-10-24T00:43:19.061Z,1.98
2022-10-24T00:45:57.642Z,2.38
2022-10-24T00:48:40.478Z,2.80
2022-10-24T00:51:32.515Z,2.53
2022-10-24T00:54:04.888Z,2.60
2022-10-24T00:56:38.135Z,2.83
2022-10-24T00:59:08.487Z,2.95
2022-10-24T01:01:35.925Z,2.83
2022-10-24T01:04:03.071Z,2.17
2022-10-24T01:06:57.960Z,2.00
2022-10-24T01:09:43.009Z,2.67
2022-10-24T01:12:28.402Z,2.47
2022-10-24T01:15:07.217Z,2.35
2022-10-24T01:17:56.802Z,2.42
2022-10-24T01:20:45.424Z,2.55
2022-10-24T01:23:18.184Z,2.35
2022-10-24T01:26:21.588Z,2.20
2022-10-24T01:29:16.865Z,2.90
2022-10-24T01:31:55.228Z,2.42
2022-10-24T01:34:42.638Z,2.90
2022-10-24T01:37:23.849Z,2.53
2022-10-24T01:39:56.764Z,2.47
2022-10-24T01:42:26.511Z,2.13
2022-10-24T01:44:57.489Z,2.28
2022-10-24T01:47:35.465Z,3.08
2022-10-24T01:50:07.224Z,2.38
2022-10-24T01:52:37.292Z,2.50
2022-10-24T01:55:05.158Z,2.50
2022-10-24T01:57:34.338Z,2.35
2022-10-24T02:00:02.108Z,2.63
2022-10-24T02:02:37.916Z,2.47
2022-10-24T02:05:10.783Z,3.13
2022-10-24T02:07:39.931Z,2.83
2022-10-24T02:10:12.103Z,2.80
2022-10-24T02:12:42.804Z,3.08
2022-10-24T02:15:19.979Z,2.97
2022-10-24T02:17:47.098Z,3.08
2022-10-24T02:20:14.528Z,3.17
2022-10-24T02:22:51.399Z,3.00
2022-10-24T02:25:25.095Z,2.83
2022-10-24T02:28:13.176Z,3.05
2022-10-24T02:30:47.197Z,3.03
2022-10-24T02:33:16.164Z,2.85
2022-10-24T02:35:45.853Z,3.03
2022-10-24T02:38:19.122Z,2.78
2022-10-24T02:40:48.349Z,2.67
2022-10-24T02:43:17.348Z,2.67
2022-10-24T02:45:45.121Z,3.05
2022-10-24T02:48:15.748Z,3.05
2022-10-24T02:50:44.052Z,3.55
2022-10-24T02:53:14.524Z,2.97
2022-10-24T02:55:41.560Z,2.78
2022-10-24T02:58:08.366Z,2.72
2022-10-24T03:00:35.476Z,3.10
2022-10-24T03:03:02.289Z,3.72
2022-10-24T03:05:29.124Z,3.90
2022-10-24T03:07:56.046Z,3.08
2022-10-24T03:10:23.110Z,3.53
2022-10-24T03:12:50.031Z,2.83
2022-10-24T03:15:17.072Z,3.78
2022-10-24T03:17:44.254Z,3.70
2022-10-24T03:20:11.481Z,2.80
2022-10-24T03:22:38.259Z,3.05
2022-10-24T03:25:06.350Z,3.35
2022-10-24T03:27:34.279Z,3.15
2022-10-24T03:30:01.925Z,2.97
2022-10-24T03:32:28.831Z,3.65
2022-10-24T03:34:56.143Z,2.90
2022-10-24T03:37:23.182Z,4.22
2022-10-24T03:39:49.994Z,2.65
2022-10-24T03:42:16.984Z,3.63
2022-10-24T03:44:43.832Z,2.80
2022-10-24T03:47:11.099Z,2.55
2022-10-24T03:49:37.994Z,3.28
2022-10-24T03:52:05.086Z,2.50
2022-10-24T03:54:31.864Z,2.85
2022-10-24T03:56:58.688Z,2.60
2022-10-24T03:59:25.448Z,3.25
2022-10-24T04:01:52.491Z,2.85
2022-10-24T04:04:19.389Z,2.95
2022-10-24T04:06:46.337Z,3.20
2022-10-24T04:09:13.341Z,2.50
2022-10-24T04:11:40.211Z,2.65
2022-10-24T04:14:07.907Z,2.70
2022-10-24T04:16:35.095Z,3.08
2022-10-24T04:19:02.200Z,2.90
2022-10-24T04:21:29.041Z,3.05
2022-10-24T04:23:56.142Z,3.35
2022-10-24T04:26:23.073Z,3.60
2022-10-24T04:28:49.933Z,2.97
2022-10-24T04:31:19.594Z,2.92
2022-10-24T04:33:49.520Z,3.20
2022-10-24T04:36:16.345Z,3.00
2022-10-24T04:38:43.180Z,3.25
2022-10-24T04:41:12.068Z,3.00
2022-10-24T04:43:40.485Z,3.20
2022-10-24T04:46:07.663Z,3.10
2022-10-24T04:48:35.433Z,3.20
2022-10-24T04:51:02.454Z,3.15
2022-10-24T04:53:29.596Z,3.17
2022-10-24T04:55:56.492Z,2.85
2022-10-24T04:58:23.402Z,2.80
2022-10-24T05:00:50.619Z,3.10
2022-10-24T05:03:18.456Z,3.70
2022-10-24T05:05:45.666Z,3.33
2022-10-24T05:08:12.718Z,2.67
2022-10-24T05:10:39.668Z,3.30
2022-10-24T05:13:06.529Z,4.10
2022-10-24T05:15:33.343Z,2.95
2022-10-24T05:18:00.402Z,3.58
2022-10-24T05:20:27.599Z,2.88
2022-10-24T05:22:54.419Z,2.55
2022-10-24T05:25:21.266Z,2.45
2022-10-24T05:27:48.162Z,2.30
2022-10-24T05:30:15.443Z,1.90
2022-10-24T05:32:42.558Z,2.03
2022-10-24T05:35:10.502Z,2.60
2022-10-24T05:37:39.107Z,2.38
2022-10-24T05:40:08.852Z,2.42
2022-10-24T05:42:36.594Z,2.63
2022-10-24T05:45:04.072Z,2.30
2022-10-24T05:47:31.005Z,2.53
2022-10-24T05:49:57.841Z,2.28
2022-10-24T05:52:24.833Z,2.75
2022-10-24T05:55:02.519Z,2.40
2022-10-24T05:57:33.852Z,2.40
2022-10-24T06:00:00.911Z,2.15
2022-10-24T06:02:28.404Z,2.10
2022-10-24T06:04:57.038Z,2.40
2022-10-24T06:07:23.894Z,2.30
2022-10-24T06:09:50.759Z,2.35
2022-10-24T06:12:17.960Z,2.38
2022-10-24T06:14:44.932Z,2.30
2022-10-24T06:17:12.100Z,2.10
2022-10-24T06:19:39.985Z,2.10
2022-10-24T06:22:08.387Z,3.20
2022-10-24T06:24:36.933Z,2.60
2022-10-24T06:27:04.578Z,2.67
2022-10-24T06:29:32.141Z,2.53
2022-10-24T06:31:59.297Z,2.70
2022-10-24T06:34:26.341Z,2.58
2022-10-24T06:36:53.472Z,2.38
2022-10-24T06:39:20.690Z,2.40
2022-10-24T06:41:47.462Z,2.50
2022-10-24T06:44:15.039Z,3.25
2022-10-24T06:46:42.101Z,2.20
2022-10-24T06:49:09.962Z,1.95
2022-10-24T06:51:36.835Z,2.63
2022-10-24T06:54:03.732Z,2.40
2022-10-24T06:56:30.724Z,2.50
2022-10-24T06:58:57.551Z,2.63
2022-10-24T07:01:26.010Z,2.58
2022-10-24T07:03:53.690Z,2.50
2022-10-24T07:06:26.021Z,2.38
2022-10-24T07:08:54.670Z,2.40
2022-10-24T07:11:21.733Z,2.13
2022-10-24T07:13:48.999Z,2.20
2022-10-24T07:16:16.788Z,2.28
2022-10-24T07:18:44.321Z,2.50
2022-10-24T07:21:15.546Z,2.30
2022-10-24T07:23:42.374Z,2.10
2022-10-24T07:26:11.550Z,2.13
2022-10-24T07:28:39.326Z,2.25
2022-10-24T07:31:06.603Z,2.03
2022-10-24T07:33:37.984Z,1.85
2022-10-24T07:36:05.356Z,1.83
2022-10-24T07:38:32.234Z,2.47
2022-10-24T07:41:02.558Z,1.67
2022-10-24T07:43:29.392Z,1.90
2022-10-24T07:45:56.236Z,2.55
2022-10-24T07:48:23.156Z,2.75
2022-10-24T07:50:50.255Z,2.28
2022-10-24T07:53:17.112Z,2.28
2022-10-24T07:55:44.691Z,2.47
2022-10-24T07:58:12.377Z,2.60
2022-10-24T08:00:44.821Z,3.72
2022-10-24T08:03:12.463Z,2.78
2022-10-24T08:05:42.584Z,3.70
2022-10-24T08:08:30.793Z,2.47
2022-10-24T08:10:56.348Z,2.40
2022-10-24T08:13:23.221Z,3.90
2022-10-24T08:15:50.097Z,5.38
2022-10-24T08:18:16.970Z,5.97
2022-10-24T08:20:43.909Z,8.55
2022-10-24T08:23:10.776Z,7.50
2022-10-24T08:25:41.084Z,5.30
2022-10-24T08:28:09.127Z,5.65
2022-10-24T08:30:36.267Z,5.55
2022-10-24T08:33:03.171Z,3.03
2022-10-24T08:35:29.979Z,3.38
2022-10-24T08:37:58.116Z,2.85
2022-10-24T08:40:25.715Z,2.80
2022-10-24T08:42:52.870Z,2.90
2022-10-24T08:45:34.263Z,3.17
2022-10-24T08:48:09.296Z,3.10
2022-10-24T08:50:36.817Z,3.03
2022-10-24T08:53:12.875Z,2.63
2022-10-24T08:55:49.393Z,3.17
2022-10-24T08:58:28.233Z,4.25
2022-10-24T09:00:59.330Z,3.88
2022-10-24T09:04:01.059Z,4.00
2022-10-24T09:06:31.959Z,3.90
2022-10-24T09:09:05.906Z,3.83
2022-10-24T09:11:41.508Z,2.88
2022-10-24T09:14:38.972Z,3.58
2022-10-24T09:17:25.348Z,2.70
2022-10-24T09:20:20.040Z,2.97
2022-10-24T09:22:47.858Z,2.92
2022-10-24T09:25:23.093Z,2.78
2022-10-24T09:27:50.967Z,2.97
2022-10-24T09:30:21.885Z,2.40
2022-10-24T09:32:48.899Z,3.05
2022-10-24T09:35:24.508Z,2.25
2022-10-24T09:38:23.194Z,3.10
2022-10-24T09:40:57.403Z,2.63
2022-10-24T09:43:48.461Z,2.78
2022-10-24T09:46:26.312Z,2.38
2022-10-24T09:49:04.818Z,2.70
2022-10-24T09:51:35.985Z,3.17
2022-10-24T09:54:21.363Z,3.08
2022-10-24T09:57:03.521Z,2.92
2022-10-24T09:59:40.943Z,2.60
2022-10-24T10:02:10.969Z,2.50
2022-10-24T10:04:39.484Z,2.20
2022-10-24T10:07:31.199Z,2.17
2022-10-24T10:10:09.606Z,2.47
2022-10-24T10:12:40.915Z,1.80
2022-10-24T10:15:35.259Z,3.05
2022-10-24T10:18:24.101Z,2.70
2022-10-24T10:21:07.783Z,1.80
2022-10-24T10:23:38.198Z,2.00
2022-10-24T10:26:23.501Z,1.92
2022-10-24T10:29:05.196Z,1.70
2022-10-24T10:31:54.658Z,1.75
2022-10-24T10:34:24.017Z,1.80
2022-10-24T10:36:57.125Z,2.05
2022-10-24T10:40:01.615Z,2.17
2022-10-24T10:42:46.699Z,2.63
2022-10-24T10:45:34.261Z,2.67
2022-10-24T10:48:13.249Z,2.38
2022-10-24T10:50:48.129Z,1.15
2022-10-24T10:53:42.529Z,2.03
2022-10-24T10:56:39.444Z,1.45
2022-10-24T10:59:29.679Z,1.58
2022-10-24T11:02:00.392Z,1.35
2022-10-24T11:04:27.416Z,1.38
2022-10-24T11:07:28.227Z,1.05
2022-10-24T11:09:59.636Z,1.05
2022-10-24T11:12:32.288Z,1.00
2022-10-24T11:15:20.671Z,1.33
2022-10-24T11:17:59.564Z,1.35
2022-10-24T11:20:29.362Z,1.45
2022-10-24T11:22:59.294Z,1.30
2022-10-24T11:25:56.944Z,2.30
2022-10-24T11:28:39.897Z,1.83
2022-10-24T11:31:44.504Z,1.98
2022-10-24T11:34:27.311Z,1.90
2022-10-24T11:37:12.821Z,2.03
2022-10-24T11:39:58.129Z,1.58
2022-10-24T11:42:45.398Z,2.20
2022-10-24T11:45:15.645Z,1.90
2022-10-24T11:47:57.851Z,2.70
2022-10-24T11:50:33.173Z,1.98
2022-10-24T11:53:40.714Z,1.88
2022-10-24T11:56:18.064Z,2.00
2022-10-24T11:58:53.128Z,3.08
2022-10-24T12:01:49.389Z,2.15
2022-10-24T12:04:53.349Z,1.30
2022-10-24T12:07:44.383Z,1.60
2022-10-24T12:10:22.638Z,1.60
2022-10-24T12:13:06.132Z,1.63
2022-10-24T12:15:43.580Z,1.60
2022-10-24T12:18:38.095Z,1.65
2022-10-24T12:21:25.858Z,1.50
2022-10-24T12:23:59.053Z,1.50
2022-10-24T12:26:31.000Z,2.05
2022-10-24T12:29:20.280Z,1.73
2022-10-24T12:31:47.086Z,1.90
2022-10-24T12:34:19.433Z,1.67
2022-10-24T12:37:09.178Z,1.40
2022-10-24T12:39:45.792Z,1.67
2022-10-24T12:42:34.505Z,1.65
2022-10-24T12:45:01.345Z,1.35
2022-10-24T12:48:11.329Z,1.38
2022-10-24T12:50:40.915Z,1.40
2022-10-24T12:53:36.944Z,1.98
2022-10-24T12:56:10.777Z,2.10
2022-10-24T12:58:40.036Z,1.30
2022-10-24T13:01:12.618Z,1.67
2022-10-24T13:03:54.567Z,1.85
2022-10-24T13:06:53.710Z,1.30
2022-10-24T13:09:48.523Z,1.17
2022-10-24T13:12:49.340Z,1.85
2022-10-24T13:15:40.213Z,1.52
2022-10-24T13:18:25.551Z,1.65
2022-10-24T13:21:10.302Z,1.98
2022-10-24T13:23:40.015Z,1.10
2022-10-24T13:26:07.123Z,1.27
2022-10-24T13:28:40.328Z,1.23
2022-10-24T13:31:07.132Z,1.63
2022-10-24T13:33:36.293Z,1.50
2022-10-24T13:36:09.190Z,1.10
2022-10-24T13:38:58.414Z,1.55
2022-10-24T13:41:46.600Z,1.92
2022-10-24T13:44:28.221Z,1.70
2022-10-24T13:47:10.083Z,2.97
2022-10-24T13:49:47.648Z,2.10
2022-10-24T13:52:37.143Z,1.50
2022-10-24T13:55:46.524Z,1.40
2022-10-24T13:58:19.361Z,2.40
2022-10-24T14:01:30.194Z,2.80
2022-10-24T14:03:59.368Z,1.50
2022-10-24T14:06:29.001Z,1.70
2022-10-24T14:09:06.753Z,1.30
2022-10-24T14:11:39.239Z,1.55
2022-10-24T14:14:15.715Z,1.38
2022-10-24T14:16:42.572Z,1.25
2022-10-24T14:19:17.771Z,1.55
2022-10-24T14:21:47.209Z,1.80
2022-10-24T14:24:20.947Z,1.27
2022-10-24T14:26:51.680Z,1.00
2022-10-24T14:29:24.591Z,1.10
2022-10-24T14:31:58.005Z,1.00
2022-10-24T14:34:25.751Z,1.70
2022-10-24T14:36:55.859Z,1.38
2022-10-24T14:39:26.351Z,1.45
2022-10-24T14:41:54.014Z,1.60
2022-10-24T14:44:22.581Z,1.35
2022-10-24T14:47:34.299Z,1.17
2022-10-24T14:50:01.594Z,1.48
2022-10-24T14:52:37.048Z,2.15
2022-10-24T14:55:06.495Z,1.67
2022-10-24T14:57:35.318Z,1.63
2022-10-24T15:00:08.411Z,1.52
2022-10-24T15:02:43.037Z,2.00
2022-10-24T15:05:19.505Z,2.15
2022-10-24T15:08:16.672Z,2.17
2022-10-24T15:10:41.520Z,1.80
2022-10-24T15:13:14.384Z,2.00
2022-10-24T15:15:43.939Z,2.58
2022-10-24T15:18:27.317Z,3.00
2022-10-24T15:21:01.614Z,2.10
2022-10-24T15:23:32.247Z,2.40
2022-10-24T15:26:07.623Z,2.55
2022-10-24T15:28:36.148Z,2.38
2022-10-24T15:31:03.159Z,2.22
2022-10-24T15:33:30.216Z,2.30
2022-10-24T15:35:58.454Z,2.55
2022-10-24T15:38:25.275Z,2.45
2022-10-24T15:40:53.553Z,2.05
2022-10-24T15:43:20.613Z,2.50
2022-10-24T15:45:47.530Z,2.92
2022-10-24T15:48:14.345Z,4.85
2022-10-24T15:50:46.488Z,3.58
2022-10-24T15:53:20.939Z,3.00
2022-10-24T15:55:48.360Z,2.67
2022-10-24T15:58:17.096Z,3.00
2022-10-24T16:00:44.351Z,4.78
2022-10-24T16:03:20.715Z,4.47
2022-10-24T16:05:54.413Z,4.80
2022-10-24T16:08:22.138Z,3.10
2022-10-24T16:10:51.108Z,2.58
2022-10-24T16:13:20.788Z,2.60
2022-10-24T16:15:49.173Z,4.00
2022-10-24T16:18:16.035Z,4.80
2022-10-24T16:20:42.995Z,4.47
2022-10-24T16:23:13.795Z,4.00
2022-10-24T16:25:40.824Z,4.22
2022-10-24T16:28:08.215Z,3.58
2022-10-24T16:30:38.042Z,3.28
2022-10-24T16:33:05.089Z,3.97
2022-10-24T16:35:34.329Z,4.60
2022-10-24T16:38:02.294Z,3.55
2022-10-24T16:40:29.696Z,3.60
2022-10-24T16:42:58.361Z,3.63
2022-10-24T16:45:26.131Z,3.60
2022-10-24T16:47:52.977Z,3.58
2022-10-24T16:50:26.660Z,3.95
2022-10-24T16:52:56.089Z,4.05
2022-10-24T16:55:23.659Z,3.67
2022-10-24T16:57:51.136Z,4.30
2022-10-24T17:00:20.002Z,3.85
2022-10-24T17:02:50.407Z,3.35
2022-10-24T17:05:18.831Z,3.45
2022-10-24T17:07:45.986Z,2.58
2022-10-24T17:10:13.735Z,2.80
2022-10-24T17:12:47.091Z,2.88
2022-10-24T17:15:16.823Z,2.45
2022-10-24T17:17:46.903Z,2.50
2022-10-24T17:20:14.022Z,2.75
2022-10-24T17:22:44.278Z,2.28
2022-10-24T17:25:23.415Z,2.85
2022-10-24T17:27:50.841Z,2.28
2022-10-24T17:30:23.532Z,2.55
2022-10-24T17:32:51.096Z,2.60
2022-10-24T17:35:20.809Z,2.20
2022-10-24T17:37:47.650Z,2.63
2022-10-24T17:40:24.224Z,2.70
2022-10-24T17:42:51.474Z,2.65
2022-10-24T17:45:24.310Z,3.20
2022-10-24T17:47:51.692Z,3.30
2022-10-24T17:50:19.009Z,3.05
2022-10-24T17:52:50.931Z,3.58
2022-10-24T17:58:11.104Z,3.25
2022-10-24T18:00:38.012Z,3.40
2022-10-24T18:03:05.388Z,3.20
2022-10-24T18:05:37.426Z,3.80
2022-10-24T18:08:05.688Z,3.58
2022-10-24T18:10:32.622Z,4.00
2022-10-24T18:15:31.558Z,4.22
2022-10-24T18:17:58.349Z,5.22
2022-10-24T18:20:25.232Z,4.60
2022-10-24T18:22:52.007Z,4.90
2022-10-24T18:25:22.705Z,4.85
2022-10-24T18:27:50.797Z,4.72
2022-10-24T18:30:19.496Z,5.32
2022-10-24T18:32:47.476Z,5.53
2022-10-24T18:35:15.519Z,6.75
2022-10-24T18:37:42.553Z,6.78
2022-10-24T18:40:10.156Z,7.30
2022-10-24T18:42:52.421Z,6.78
2022-10-24T18:45:25.031Z,8.80
2022-10-24T18:47:52.950Z,7.90
2022-10-24T18:50:23.300Z,8.15
2022-10-24T18:53:04.694Z,7.80
2022-10-24T18:55:33.927Z,8.35
2022-10-24T18:58:00.902Z,8.68
2022-10-24T19:00:31.110Z,9.32
2022-10-24T19:03:33.602Z,9.35
2022-10-24T19:06:10.536Z,10.40
2022-10-24T19:08:37.435Z,10.20
2022-10-24T19:11:04.414Z,9.85
2022-10-24T19:13:31.327Z,10.57
2022-10-24T19:16:00.652Z,10.68
2022-10-24T19:18:29.817Z,11.02
2022-10-24T19:20:56.916Z,10.38
2022-10-24T19:23:24.734Z,11.68
2022-10-24T19:25:52.147Z,11.18
2022-10-24T19:28:20.230Z,11.80
2022-10-24T19:30:48.111Z,11.98
2022-10-24T19:33:15.548Z,11.25
2022-10-24T19:35:47.193Z,12.07
2022-10-24T19:38:15.246Z,11.68
2022-10-24T19:41:00.528Z,12.55
2022-10-24T19:43:30.317Z,12.23
2022-10-24T19:48:48.985Z,11.95
2022-10-24T19:51:18.165Z,12.50
2022-10-24T19:53:46.307Z,13.27
2022-10-24T19:56:15.594Z,15.63
2022-10-24T19:58:43.094Z,7.85
2022-10-24T20:01:16.523Z,3.55
2022-10-24T20:03:45.271Z,3.17
2022-10-24T20:06:12.936Z,2.95
2022-10-24T20:08:40.435Z,2.22
2022-10-24T20:11:08.655Z,2.58
2022-10-24T20:13:35.864Z,3.03
2022-10-24T20:16:06.393Z,3.05
2022-10-24T20:18:35.298Z,2.85
2022-10-24T20:21:07.223Z,2.80
2022-10-24T20:23:35.259Z,2.60
2022-10-24T20:26:06.207Z,1.88
2022-10-24T20:28:38.631Z,2.45
2022-10-24T20:31:06.511Z,3.78
2022-10-24T20:33:33.719Z,4.13
2022-10-24T20:36:01.764Z,6.90
2022-10-24T20:38:29.269Z,2.92
2022-10-24T20:41:02.132Z,1.45
2022-10-24T20:43:29.880Z,1.30
2022-10-24T20:45:56.684Z,1.23
2022-10-24T20:48:23.550Z,1.13
2022-10-24T20:50:50.542Z,1.20
2022-10-24T20:53:17.503Z,1.05
2022-10-24T20:55:45.084Z,1.08
2022-10-24T20:58:13.579Z,1.20
2022-10-24T21:03:12.161Z,1.40
2022-10-24T21:05:39.541Z,1.52
2022-10-24T21:08:06.726Z,1.48
2022-10-24T21:10:33.591Z,1.50
2022-10-24T21:13:00.328Z,1.63
2022-10-24T21:15:27.114Z,2.22
2022-10-24T21:17:53.891Z,3.17
2022-10-24T21:20:20.790Z,4.95
2022-10-24T21:22:47.558Z,5.50
2022-10-24T21:25:14.468Z,3.78
2022-10-24T21:27:41.270Z,2.83
2022-10-24T21:30:13.508Z,3.30
2022-10-24T21:32:41.192Z,3.90
2022-10-24T21:35:08.219Z,6.90
2022-10-24T21:37:35.178Z,3.88
2022-10-24T21:40:02.129Z,2.78
2022-10-24T21:42:33.254Z,2.70
2022-10-24T21:45:00.543Z,2.83
2022-10-24T21:47:28.368Z,3.97
2022-10-24T21:49:55.115Z,6.03
2022-10-24T21:52:22.009Z,6.03
2022-10-24T21:54:48.747Z,7.20
2022-10-24T21:57:15.561Z,6.57
2022-10-24T21:59:42.379Z,6.13
2022-10-24T22:02:09.423Z,5.30
2022-10-24T22:04:36.336Z,6.00
2022-10-24T22:07:03.352Z,5.82
2022-10-24T22:09:30.283Z,6.10
2022-10-24T22:11:58.063Z,5.43
2022-10-24T22:14:25.198Z,5.22
2022-10-24T22:16:52.066Z,6.22
2022-10-24T22:19:18.938Z,6.38
2022-10-24T22:21:48.103Z,7.32
2022-10-24T22:24:21.379Z,7.43
2022-10-24T22:26:49.247Z,8.23
2022-10-24T22:29:22.204Z,8.43
2022-10-24T22:31:49.877Z,9.60
2022-10-24T22:34:20.453Z,9.38
2022-10-24T22:36:56.190Z,9.85
2022-10-24T22:39:25.686Z,10.15
2022-10-24T22:41:53.275Z,10.02
2022-10-24T22:44:21.073Z,9.77
2022-10-24T22:46:56.815Z,9.63
2022-10-24T22:49:42.442Z,10.68
2022-10-24T22:52:13.297Z,10.10
2022-10-24T22:54:40.745Z,10.50
2022-10-24T22:57:08.148Z,9.80
2022-10-24T22:59:35.298Z,9.32
2022-10-24T23:02:05.603Z,9.00
2022-10-24T23:04:49.861Z,8.80
2022-10-24T23:07:41.374Z,9.40
2022-10-24T23:10:11.809Z,9.07
2022-10-24T23:12:38.972Z,9.98
2022-10-24T23:15:06.895Z,10.00
2022-10-24T23:17:34.193Z,10.25
2022-10-24T23:20:01.341Z,8.65
2022-10-24T23:22:32.848Z,9.35
2022-10-24T23:25:01.296Z,8.68
2022-10-24T23:27:39.874Z,9.77
2022-10-24T23:30:14.682Z,8.73
2022-10-24T23:32:41.894Z,8.85
2022-10-24T23:35:09.670Z,9.27
2022-10-24T23:37:48.590Z,9.95
2022-10-24T23:40:15.724Z,9.20
2022-10-24T23:42:43.664Z,8.52
2022-10-24T23:45:14.778Z,9.00
2022-10-24T23:48:19.390Z,8.18
2022-10-24T23:50:59.795Z,8.10
2022-10-24T23:53:48.836Z,8.00
2022-10-24T23:56:17.612Z,6.93
2022-10-24T23:58:44.560Z,7.53
